Time;durP1;ratioP1;P1;durP2;ratioP2;P2;SDS_P1;SDS_P2;PMS_P1;PMS_P2;Temp;Humidity;BMP_temperature;BMP_pressure;BME280_temperature;BME280_humidity;BME280_pressure;Samples;Min_cycle;Max_cycle;Signal;HPM_P1;HPM_P2
2021/08/18 00:00:46;;;;;;;17.20;11.63;;;16.90;99.90;;;;;;5018502;28;20562;-66
2021/08/18 00:03:14;;;;;;;21.00;11.47;;;16.90;99.90;;;;;;5004035;28;20576;-62
2021/08/18 00:05:41;;;;;;;18.23;11.27;;;16.90;99.90;;;;;;5017904;28;20463;-66
2021/08/18 00:08:14;;;;;;;14.70;10.67;;;16.80;99.90;;;;;;5020328;28;20937;-66
2021/08/18 00:10:44;;;;;;;18.77;10.80;;;16.80;99.90;;;;;;5003165;28;20806;-67
2021/08/18 00:13:12;;;;;;;29.80;14.00;;;16.70;99.90;;;;;;5002273;28;20500;-67
2021/08/18 00:15:40;;;;;;;15.67;10.70;;;16.70;99.90;;;;;;5002488;28;20483;-66
2021/08/18 00:18:06;;;;;;;18.13;11.93;;;16.70;99.90;;;;;;4989375;28;20454;-64
2021/08/18 00:20:33;;;;;;;19.73;12.00;;;16.70;99.90;;;;;;5023477;28;20801;-67
2021/08/18 00:22:59;;;;;;;17.30;11.90;;;16.70;99.90;;;;;;5022637;28;20188;-64
2021/08/18 00:25:26;;;;;;;18.50;11.53;;;16.80;99.90;;;;;;5024101;28;21087;-63
2021/08/18 00:27:53;;;;;;;22.17;11.80;;;16.80;99.90;;;;;;5026885;28;21339;-63
2021/08/18 00:30:18;;;;;;;18.90;11.47;;;16.80;99.90;;;;;;5024757;28;20449;-63
2021/08/18 00:32:44;;;;;;;19.80;11.77;;;16.70;99.90;;;;;;4999607;28;20451;-63
2021/08/18 00:35:10;;;;;;;21.37;10.90;;;16.70;99.90;;;;;;5020003;28;20430;-63
2021/08/18 00:37:38;;;;;;;20.60;12.33;;;16.70;99.90;;;;;;5022438;28;20197;-63
2021/08/18 00:40:05;;;;;;;19.70;11.20;;;16.60;99.90;;;;;;5008082;28;20208;-63
2021/08/18 00:42:33;;;;;;;15.80;10.67;;;16.70;99.90;;;;;;5008720;28;20799;-64
2021/08/18 00:44:59;;;;;;;15.80;11.23;;;16.60;99.90;;;;;;5020869;28;20418;-64
2021/08/18 00:47:24;;;;;;;19.37;11.83;;;16.60;99.90;;;;;;5001413;28;20822;-64
2021/08/18 00:50:02;;;;;;;20.53;11.03;;;16.70;99.90;;;;;;5025149;28;20219;-64
2021/08/18 00:52:30;;;;;;;21.40;12.10;;;16.70;99.90;;;;;;5018611;28;20197;-64
2021/08/18 00:54:56;;;;;;;19.23;11.33;;;16.70;99.90;;;;;;5006894;28;20868;-67
2021/08/18 00:57:22;;;;;;;16.40;10.73;;;16.70;99.90;;;;;;5020608;28;20430;-63
2021/08/18 00:59:48;;;;;;;17.00;11.47;;;16.70;99.90;;;;;;5019278;28;20405;-64
2021/08/18 01:02:16;;;;;;;23.57;13.07;;;16.70;99.90;;;;;;5021603;28;20185;-63
2021/08/18 01:04:42;;;;;;;20.20;12.57;;;16.70;99.90;;;;;;5020451;28;21055;-63
2021/08/18 01:07:08;;;;;;;23.27;10.33;;;16.70;99.90;;;;;;5024419;28;20469;-65
2021/08/18 01:09:35;;;;;;;20.90;13.33;;;16.60;99.90;;;;;;5017541;28;20451;-66
2021/08/18 01:12:01;;;;;;;19.53;12.60;;;16.70;99.90;;;;;;5018995;28;20196;-67
2021/08/18 01:14:27;;;;;;;24.70;12.10;;;16.70;99.90;;;;;;5002258;28;20436;-67
2021/08/18 01:16:54;;;;;;;22.20;13.40;;;16.60;99.90;;;;;;5016325;28;20486;-66
2021/08/18 01:19:20;;;;;;;24.67;14.70;;;16.60;99.90;;;;;;5004077;28;20208;-66
2021/08/18 01:21:48;;;;;;;25.30;11.77;;;16.60;99.90;;;;;;5007237;28;20757;-64
2021/08/18 01:24:18;;;;;;;23.57;12.23;;;16.50;99.90;;;;;;5020199;28;20451;-64
2021/08/18 01:26:44;;;;;;;15.23;11.33;;;16.60;99.90;;;;;;5019794;28;20459;-64
2021/08/18 01:29:10;;;;;;;16.00;11.20;;;16.60;99.90;;;;;;5024942;28;21283;-63
2021/08/18 01:31:36;;;;;;;20.77;12.87;;;16.60;99.90;;;;;;5017722;28;20537;-64
2021/08/18 01:34:05;;;;;;;17.53;11.60;;;16.60;99.90;;;;;;5017244;28;20819;-64
2021/08/18 01:36:32;;;;;;;23.10;13.27;;;16.50;99.90;;;;;;5019217;28;20439;-64
2021/08/18 01:39:06;;;;;;;18.33;11.90;;;16.40;99.90;;;;;;5020017;28;21145;-66
2021/08/18 01:41:32;;;;;;;19.37;10.23;;;16.40;99.90;;;;;;5019881;28;20517;-66
2021/08/18 01:43:57;;;;;;;18.80;10.00;;;16.40;99.90;;;;;;5006196;28;20448;-64
2021/08/18 01:46:24;;;;;;;18.03;10.40;;;16.40;99.90;;;;;;5028198;28;20616;-64
2021/08/18 01:48:50;;;;;;;16.60;11.90;;;16.40;99.90;;;;;;5041635;22;20602;-63
2021/08/18 01:51:16;;;;;;;16.57;11.30;;;16.40;99.90;;;;;;5024187;28;20510;-64
2021/08/18 01:53:44;;;;;;;16.27;10.67;;;16.20;99.90;;;;;;5006232;28;20187;-64
2021/08/18 01:56:12;;;;;;;19.27;12.00;;;16.20;99.90;;;;;;5022163;28;20452;-63
2021/08/18 01:58:39;;;;;;;15.07;10.73;;;16.20;99.90;;;;;;5021591;28;20922;-63
2021/08/18 02:01:16;;;;;;;18.30;10.27;;;16.30;99.90;;;;;;5004374;28;20782;-64
2021/08/18 02:03:43;;;;;;;19.47;11.70;;;16.30;99.90;;;;;;5023435;28;20525;-63
2021/08/18 02:06:14;;;;;;;22.17;11.50;;;16.40;99.90;;;;;;5022321;28;20475;-67
2021/08/18 02:08:53;;;;;;;17.83;11.30;;;16.40;99.90;;;;;;5025224;28;20439;-66
2021/08/18 02:11:19;;;;;;;20.47;12.57;;;16.50;99.90;;;;;;5008629;28;20546;-65
2021/08/18 02:13:45;;;;;;;19.40;12.50;;;16.60;99.90;;;;;;5005632;28;20446;-63
2021/08/18 02:16:11;;;;;;;21.87;13.37;;;16.50;99.90;;;;;;5024231;28;20419;-62
2021/08/18 02:18:36;;;;;;;22.17;13.00;;;16.50;99.90;;;;;;5004531;28;20471;-62
2021/08/18 02:21:02;;;;;;;20.03;12.20;;;16.40;99.90;;;;;;5021281;28;20193;-62
2021/08/18 02:23:29;;;;;;;20.13;12.77;;;16.50;99.90;;;;;;5008119;28;20232;-62
2021/08/18 02:26:01;;;;;;;21.93;12.80;;;16.50;99.90;;;;;;5021533;28;20278;-62
2021/08/18 02:28:29;;;;;;;22.73;12.80;;;16.50;99.90;;;;;;5018183;28;20499;-62
2021/08/18 02:30:55;;;;;;;25.23;13.50;;;16.50;99.90;;;;;;5023798;28;20987;-62
2021/08/18 02:33:43;;;;;;;23.70;12.83;;;16.40;99.90;;;;;;5004033;28;20562;-66
2021/08/18 02:36:08;;;;;;;20.90;11.23;;;16.40;99.90;;;;;;5005457;28;22576;-66
2021/08/18 02:38:34;;;;;;;20.50;12.03;;;16.40;99.90;;;;;;5024384;28;20478;-62
2021/08/18 02:41:00;;;;;;;17.70;11.03;;;16.30;99.90;;;;;;4989573;28;20200;-62
2021/08/18 02:43:26;;;;;;;17.40;12.87;;;16.30;99.90;;;;;;5023046;28;20442;-63
2021/08/18 02:45:51;;;;;;;19.63;11.63;;;16.40;99.90;;;;;;5024115;28;20251;-65
2021/08/18 02:48:17;;;;;;;19.17;12.00;;;16.40;99.90;;;;;;5023440;28;20216;-63
2021/08/18 02:50:44;;;;;;;16.73;11.97;;;16.50;99.90;;;;;;5024714;28;20180;-63
2021/08/18 02:53:09;;;;;;;21.10;10.50;;;16.40;99.90;;;;;;5023696;28;20183;-66
2021/08/18 02:55:35;;;;;;;19.40;11.33;;;16.40;99.90;;;;;;5020906;28;20792;-62
2021/08/18 02:58:01;;;;;;;20.10;11.50;;;16.40;99.90;;;;;;5004296;28;20574;-62
2021/08/18 03:00:27;;;;;;;19.27;12.30;;;16.40;99.90;;;;;;5022998;28;20440;-62
2021/08/18 03:02:53;;;;;;;18.77;11.57;;;16.40;99.90;;;;;;5021081;28;20208;-63
2021/08/18 03:05:19;;;;;;;17.57;12.07;;;16.40;99.90;;;;;;5005595;28;20452;-66
2021/08/18 03:07:45;;;;;;;20.40;11.37;;;16.40;99.90;;;;;;5019566;28;20192;-67
2021/08/18 03:10:11;;;;;;;22.27;12.17;;;16.30;99.90;;;;;;5022510;28;20458;-67
2021/08/18 03:12:40;;;;;;;20.47;11.40;;;16.30;99.90;;;;;;5020258;28;20238;-66
2021/08/18 03:15:07;;;;;;;19.43;12.90;;;16.30;99.90;;;;;;5021587;28;20416;-66
2021/08/18 03:17:33;;;;;;;18.47;10.87;;;16.30;99.90;;;;;;5008914;28;20431;-64
2021/08/18 03:19:58;;;;;;;21.07;12.73;;;16.30;99.90;;;;;;5022026;28;20444;-63
2021/08/18 03:22:24;;;;;;;18.20;11.70;;;16.20;99.90;;;;;;5019635;28;20188;-62
2021/08/18 03:24:54;;;;;;;25.30;12.70;;;16.20;99.90;;;;;;5023420;28;20180;-62
2021/08/18 03:27:19;;;;;;;24.57;14.27;;;16.30;99.90;;;;;;5019116;28;20402;-62
2021/08/18 03:29:45;;;;;;;21.97;12.87;;;16.30;99.90;;;;;;5023210;28;20825;-64
2021/08/18 03:32:11;;;;;;;21.50;11.50;;;16.20;99.90;;;;;;5017612;28;20603;-64
2021/08/18 03:34:36;;;;;;;20.70;12.30;;;16.20;99.90;;;;;;5021513;28;20184;-64
2021/08/18 03:37:02;;;;;;;20.33;13.50;;;16.20;99.90;;;;;;5024518;28;20184;-64
2021/08/18 03:39:28;;;;;;;21.80;12.60;;;16.20;99.90;;;;;;5018946;28;20572;-64
2021/08/18 03:42:12;;;;;;;22.27;12.30;;;16.10;99.90;;;;;;5020738;28;20260;-64
2021/08/18 03:44:38;;;;;;;23.00;13.43;;;16.10;99.90;;;;;;5021881;28;20268;-62
2021/08/18 03:47:04;;;;;;;21.53;11.90;;;16.10;99.90;;;;;;5023951;28;20885;-66
2021/08/18 03:49:29;;;;;;;19.50;11.87;;;16.10;99.90;;;;;;5021575;28;20299;-62
2021/08/18 03:51:55;;;;;;;22.80;13.43;;;16.10;99.90;;;;;;5023680;28;20626;-62
2021/08/18 03:54:47;;;;;;;21.93;12.53;;;16.10;99.90;;;;;;5021095;28;20195;-62
2021/08/18 03:57:14;;;;;;;22.40;12.60;;;16.00;99.90;;;;;;5018553;28;20204;-66
2021/08/18 03:59:40;;;;;;;23.63;13.00;;;16.00;99.90;;;;;;5004207;28;20495;-66
2021/08/18 04:02:05;;;;;;;20.67;12.67;;;16.00;99.90;;;;;;5018251;28;20483;-66
2021/08/18 04:04:31;;;;;;;18.93;11.50;;;16.10;99.90;;;;;;5019430;28;20193;-66
2021/08/18 04:06:59;;;;;;;25.00;13.73;;;16.00;99.90;;;;;;5000920;28;20220;-66
2021/08/18 04:09:25;;;;;;;19.80;12.70;;;16.00;99.90;;;;;;5003099;28;20204;-66
2021/08/18 04:11:50;;;;;;;21.20;12.90;;;16.00;99.90;;;;;;5007664;28;20893;-66
2021/08/18 04:14:16;;;;;;;20.50;12.87;;;15.90;99.90;;;;;;5020413;28;20181;-62
2021/08/18 04:16:45;;;;;;;21.13;13.40;;;16.00;99.90;;;;;;5004142;28;20272;-62
2021/08/18 04:19:10;;;;;;;23.70;13.10;;;16.00;99.90;;;;;;5021437;28;20208;-61
2021/08/18 04:21:36;;;;;;;20.30;12.33;;;15.90;99.90;;;;;;5023568;28;20518;-62
2021/08/18 04:24:02;;;;;;;22.30;12.83;;;15.90;99.90;;;;;;5021865;28;20192;-62
2021/08/18 04:26:28;;;;;;;22.77;12.60;;;16.00;99.90;;;;;;5021047;28;20204;-62
2021/08/18 04:28:54;;;;;;;27.93;13.37;;;16.00;99.90;;;;;;5022013;28;20444;-63
2021/08/18 04:31:20;;;;;;;24.33;14.57;;;15.90;99.90;;;;;;5023955;28;20251;-63
2021/08/18 04:33:46;;;;;;;23.20;12.70;;;15.90;99.90;;;;;;5000701;28;20439;-63
2021/08/18 04:36:12;;;;;;;23.07;12.97;;;15.90;99.90;;;;;;5021721;28;20854;-67
2021/08/18 04:38:37;;;;;;;20.97;13.20;;;15.90;99.90;;;;;;5023474;28;20204;-64
2021/08/18 04:41:03;;;;;;;21.87;13.83;;;16.00;99.90;;;;;;5003352;28;20197;-64
2021/08/18 04:43:32;;;;;;;28.33;14.83;;;16.00;99.90;;;;;;5021674;28;20565;-64
2021/08/18 04:46:01;;;;;;;22.67;13.03;;;15.80;99.90;;;;;;5021653;28;20712;-64
2021/08/18 04:48:26;;;;;;;21.53;12.50;;;15.90;99.90;;;;;;5019088;28;20454;-63
2021/08/18 04:50:52;;;;;;;23.53;11.70;;;15.90;99.90;;;;;;5018105;28;20796;-63
2021/08/18 04:53:17;;;;;;;20.20;12.93;;;16.00;99.90;;;;;;5019971;28;20176;-65
2021/08/18 04:55:43;;;;;;;25.73;12.27;;;16.00;99.90;;;;;;5017535;28;20867;-65
2021/08/18 04:58:09;;;;;;;24.23;14.23;;;16.00;99.90;;;;;;5016961;28;20181;-65
2021/08/18 05:00:35;;;;;;;21.60;12.57;;;16.00;99.90;;;;;;5001742;28;20188;-63
2021/08/18 05:03:01;;;;;;;18.27;11.67;;;16.00;99.90;;;;;;5020195;28;20962;-62
2021/08/18 05:05:27;;;;;;;19.70;12.10;;;15.90;99.90;;;;;;5018862;28;20220;-66
2021/08/18 05:07:52;;;;;;;23.20;11.73;;;15.90;99.90;;;;;;5020975;28;20424;-62
2021/08/18 05:10:21;;;;;;;22.73;12.07;;;16.00;99.90;;;;;;5004764;28;20193;-62
2021/08/18 05:12:47;;;;;;;23.23;12.33;;;15.90;99.90;;;;;;5014678;28;20292;-63
2021/08/18 05:15:12;;;;;;;19.27;11.00;;;15.90;99.90;;;;;;5020748;28;20948;-63
2021/08/18 05:17:38;;;;;;;21.63;10.67;;;15.80;99.90;;;;;;5024881;28;20590;-64
2021/08/18 05:20:08;;;;;;;25.47;12.13;;;15.80;99.90;;;;;;5022150;28;20209;-64
2021/08/18 05:22:34;;;;;;;20.13;11.47;;;15.80;99.90;;;;;;5025078;28;20454;-64
2021/08/18 05:24:59;;;;;;;20.90;12.50;;;15.70;99.90;;;;;;5028950;28;21004;-63
2021/08/18 05:27:25;;;;;;;19.53;12.43;;;15.70;99.90;;;;;;5028459;28;20300;-64
2021/08/18 05:29:50;;;;;;;18.97;11.57;;;15.70;99.90;;;;;;5023160;28;20212;-65
2021/08/18 05:32:16;;;;;;;19.40;11.40;;;15.70;99.90;;;;;;5022766;28;20187;-64
2021/08/18 05:34:42;;;;;;;22.03;12.40;;;15.70;99.90;;;;;;5024329;28;20267;-64
2021/08/18 05:37:19;;;;;;;23.53;11.90;;;15.70;99.90;;;;;;5006325;28;20269;-64
2021/08/18 05:39:44;;;;;;;19.27;12.07;;;15.80;99.90;;;;;;5009323;28;20235;-64
2021/08/18 05:42:11;;;;;;;17.23;11.30;;;15.70;99.90;;;;;;5025277;28;20888;-66
2021/08/18 05:44:37;;;;;;;19.73;12.87;;;15.70;99.90;;;;;;5019944;28;20197;-65
2021/08/18 05:47:06;;;;;;;18.80;11.33;;;15.70;99.90;;;;;;5023037;28;20467;-65
2021/08/18 05:49:32;;;;;;;19.10;11.07;;;15.70;99.90;;;;;;5026593;28;20326;-62
2021/08/18 05:51:58;;;;;;;18.37;12.03;;;15.80;99.90;;;;;;5025232;28;20783;-64
2021/08/18 05:54:23;;;;;;;20.20;11.20;;;15.70;99.90;;;;;;5004738;28;20432;-62
2021/08/18 05:56:51;;;;;;;18.53;11.33;;;15.80;99.90;;;;;;5023220;28;20228;-63
2021/08/18 05:59:32;;;;;;;23.83;11.97;;;15.70;99.90;;;;;;5021796;28;20646;-62
2021/08/18 06:01:58;;;;;;;18.10;10.50;;;15.70;99.90;;;;;;5024016;28;20965;-62
2021/08/18 06:04:24;;;;;;;15.80;9.87;;;15.80;99.90;;;;;;5022171;28;20457;-62
2021/08/18 06:06:49;;;;;;;18.20;11.33;;;15.80;99.90;;;;;;5022573;28;20714;-66
2021/08/18 06:09:15;;;;;;;14.23;10.07;;;15.80;99.90;;;;;;5025587;28;20213;-62
2021/08/18 06:12:09;;;;;;;14.80;9.87;;;15.80;99.90;;;;;;5024502;28;20243;-64
2021/08/18 06:14:36;;;;;;;16.53;9.53;;;15.80;99.90;;;;;;5019795;28;20188;-64
2021/08/18 06:17:02;;;;;;;14.40;9.63;;;15.90;99.90;;;;;;5003183;28;20482;-61
2021/08/18 06:19:27;;;;;;;17.90;9.60;;;15.90;99.90;;;;;;5023223;28;20466;-65
2021/08/18 06:21:53;;;;;;;14.27;9.40;;;15.90;99.90;;;;;;5018588;28;20197;-65
2021/08/18 06:27:03;;;;;;;13.17;9.13;;;15.90;99.90;;;;;;5019792;28;20712;-66
2021/08/18 06:29:32;;;;;;;12.10;9.70;;;16.00;99.90;;;;;;5066358;22;20988;-64
2021/08/18 06:31:57;;;;;;;12.93;10.43;;;16.00;99.90;;;;;;5028417;28;20439;-64
2021/08/18 06:34:23;;;;;;;14.50;9.73;;;16.00;99.90;;;;;;5047576;28;20441;-64
2021/08/18 06:36:49;;;;;;;14.10;9.27;;;16.00;99.90;;;;;;5043517;28;20176;-65
2021/08/18 06:39:15;;;;;;;14.80;8.90;;;16.00;99.90;;;;;;5041112;28;20212;-64
2021/08/18 06:41:55;;;;;;;15.50;9.90;;;16.00;99.90;;;;;;5028413;28;20235;-64
2021/08/18 06:44:36;;;;;;;14.00;9.43;;;16.10;99.90;;;;;;5023289;28;20435;-65
2021/08/18 06:47:02;;;;;;;11.00;8.63;;;16.10;99.90;;;;;;5039918;28;20479;-64
2021/08/18 06:49:28;;;;;;;16.60;8.40;;;16.10;99.90;;;;;;5043252;28;20454;-65
2021/08/18 06:51:54;;;;;;;14.63;8.87;;;16.10;99.90;;;;;;5045357;28;20430;-65
2021/08/18 06:54:19;;;;;;;14.80;9.33;;;16.10;99.90;;;;;;5047152;28;20190;-65
2021/08/18 06:56:45;;;;;;;11.63;7.80;;;16.10;99.90;;;;;;5044357;28;20188;-65
2021/08/18 06:59:11;;;;;;;15.57;9.33;;;16.10;99.90;;;;;;5027790;28;20264;-61
2021/08/18 07:01:50;;;;;;;11.03;8.77;;;16.10;99.90;;;;;;5012136;28;20184;-62
2021/08/18 07:04:16;;;;;;;12.93;9.33;;;16.20;99.90;;;;;;5027949;28;20778;-63
2021/08/18 07:06:42;;;;;;;11.47;6.93;;;16.20;99.90;;;;;;5043553;28;20474;-64
2021/08/18 07:09:07;;;;;;;14.00;7.60;;;16.20;99.90;;;;;;5025689;28;20202;-63
2021/08/18 07:11:34;;;;;;;16.67;8.17;;;16.20;99.90;;;;;;5026602;28;20450;-64
2021/08/18 07:14:00;;;;;;;16.83;8.80;;;16.20;99.90;;;;;;5044676;28;20601;-64
2021/08/18 07:16:31;;;;;;;13.10;8.50;;;16.20;99.90;;;;;;5048121;28;20521;-65
2021/08/18 07:19:03;;;;;;;13.50;7.50;;;16.30;99.90;;;;;;5022534;28;20761;-64
2021/08/18 07:21:29;;;;;;;11.93;7.10;;;16.40;99.90;;;;;;5028275;28;20446;-63
2021/08/18 07:23:56;;;;;;;12.17;7.30;;;16.40;99.90;;;;;;5048565;28;20712;-64
2021/08/18 07:26:25;;;;;;;14.80;7.20;;;16.60;99.90;;;;;;5043925;28;20931;-64
2021/08/18 07:28:51;;;;;;;12.17;7.87;;;16.60;99.90;;;;;;5041428;28;20548;-64
2021/08/18 07:31:16;;;;;;;12.60;7.37;;;16.70;99.90;;;;;;5044950;28;20546;-64
2021/08/18 07:33:42;;;;;;;10.47;7.17;;;16.70;99.90;;;;;;5043094;28;20443;-64
2021/08/18 07:36:08;;;;;;;9.27;7.20;;;16.70;99.90;;;;;;5042934;28;20197;-64
2021/08/18 07:38:34;;;;;;;10.93;7.20;;;16.70;99.90;;;;;;5043384;28;20214;-61
2021/08/18 07:41:00;;;;;;;12.47;6.90;;;16.60;99.90;;;;;;5042684;28;20434;-64
2021/08/18 07:43:25;;;;;;;11.53;8.23;;;16.50;99.90;;;;;;5044711;28;20207;-64
2021/08/18 07:45:51;;;;;;;11.67;7.57;;;16.60;99.90;;;;;;5043662;28;20215;-65
2021/08/18 07:48:17;;;;;;;10.80;7.60;;;16.60;99.90;;;;;;5027955;28;20285;-64
2021/08/18 07:50:56;;;;;;;10.80;7.50;;;16.50;99.90;;;;;;5027237;28;20533;-64
2021/08/18 07:53:23;;;;;;;11.87;6.80;;;16.50;99.90;;;;;;5024232;28;20202;-64
2021/08/18 07:55:48;;;;;;;10.50;7.20;;;16.60;99.90;;;;;;5021044;28;20579;-62
2021/08/18 07:58:14;;;;;;;10.70;7.33;;;16.60;99.90;;;;;;5042721;28;20446;-64
2021/08/18 08:00:45;;;;;;;8.50;6.50;;;16.60;99.90;;;;;;5044708;28;20278;-65
2021/08/18 08:03:11;;;;;;;12.13;7.30;;;16.60;99.90;;;;;;5043225;28;20914;-65
2021/08/18 08:05:40;;;;;;;10.73;7.37;;;16.60;99.90;;;;;;5025359;28;20462;-65
2021/08/18 08:08:07;;;;;;;14.60;8.90;;;16.50;99.90;;;;;;5027630;28;20265;-62
2021/08/18 08:10:33;;;;;;;10.10;7.80;;;16.50;99.90;;;;;;5044421;28;20932;-65
2021/08/18 08:12:59;;;;;;;12.03;7.40;;;16.60;99.90;;;;;;5046409;28;20202;-62
2021/08/18 08:15:24;;;;;;;10.93;7.47;;;16.50;99.90;;;;;;4993379;28;20274;-62
2021/08/18 08:17:50;;;;;;;13.23;7.67;;;16.60;99.90;;;;;;5042631;28;20443;-65
2021/08/18 08:20:16;;;;;;;8.77;6.73;;;16.70;99.90;;;;;;5023761;28;20317;-65
2021/08/18 08:22:42;;;;;;;12.10;7.80;;;16.90;99.90;;;;;;5038723;28;20183;-65
2021/08/18 08:25:08;;;;;;;15.03;7.93;;;17.00;99.90;;;;;;5024800;28;20180;-62
2021/08/18 08:27:34;;;;;;;13.10;6.60;;;17.20;99.90;;;;;;5023571;28;20219;-62
2021/08/18 08:29:59;;;;;;;12.80;7.60;;;17.30;99.90;;;;;;5042731;28;20639;-65
2021/08/18 08:32:25;;;;;;;11.53;7.10;;;17.30;99.90;;;;;;5038953;28;20214;-64
2021/08/18 08:34:51;;;;;;;10.40;7.27;;;17.40;99.90;;;;;;5043487;28;20188;-65
2021/08/18 08:37:18;;;;;;;10.80;7.23;;;17.60;99.90;;;;;;5026445;28;20188;-65
2021/08/18 08:39:45;;;;;;;10.07;5.83;;;17.70;99.90;;;;;;5040886;28;20211;-65
2021/08/18 08:42:13;;;;;;;9.03;6.13;;;17.50;99.90;;;;;;5042441;28;20446;-64
2021/08/18 08:44:39;;;;;;;9.07;6.33;;;17.60;99.90;;;;;;5042392;28;20453;-65
2021/08/18 08:47:17;;;;;;;10.77;6.27;;;17.60;99.90;;;;;;5025339;28;20596;-64
2021/08/18 08:49:43;;;;;;;14.20;6.87;;;17.70;99.90;;;;;;5027471;28;20203;-64
2021/08/18 08:52:13;;;;;;;9.90;5.90;;;17.80;99.90;;;;;;5046370;28;20554;-64
2021/08/18 08:54:40;;;;;;;8.07;5.93;;;17.80;99.90;;;;;;5032313;28;20902;-64
2021/08/18 08:57:10;;;;;;;9.80;6.00;;;17.70;99.90;;;;;;5043135;28;20486;-65
2021/08/18 08:59:37;;;;;;;7.13;5.50;;;17.60;99.90;;;;;;5047250;28;20544;-65
2021/08/18 09:02:13;;;;;;;8.90;5.70;;;17.60;99.90;;;;;;5028172;28;20476;-65
2021/08/18 09:04:44;;;;;;;11.40;6.30;;;17.70;99.90;;;;;;5025364;28;20437;-63
2021/08/18 09:07:22;;;;;;;11.37;6.77;;;17.60;99.90;;;;;;5048967;28;20460;-64
2021/08/18 09:10:00;;;;;;;10.30;6.53;;;17.80;99.90;;;;;;5015165;28;20454;-65
2021/08/18 09:12:36;;;;;;;9.77;6.60;;;17.90;99.90;;;;;;5046955;28;20449;-63
2021/08/18 09:15:15;;;;;;;7.30;5.43;;;18.00;99.90;;;;;;5050362;28;20805;-64
2021/08/18 09:17:42;;;;;;;9.33;5.60;;;18.00;99.90;;;;;;5023312;28;20447;-62
2021/08/18 09:20:11;;;;;;;6.70;5.50;;;18.20;99.90;;;;;;5039962;28;20976;-64
2021/08/18 09:22:56;;;;;;;7.13;5.13;;;18.30;99.90;;;;;;5044752;28;20426;-64
2021/08/18 09:25:29;;;;;;;7.60;5.87;;;18.20;99.90;;;;;;5045134;28;21086;-63
2021/08/18 09:28:04;;;;;;;8.17;5.50;;;18.30;99.90;;;;;;5043695;28;20431;-64
2021/08/18 09:30:31;;;;;;;10.77;6.80;;;18.40;99.90;;;;;;5044573;28;20476;-65
2021/08/18 09:32:59;;;;;;;8.90;6.00;;;18.50;99.90;;;;;;5041612;28;20987;-64
2021/08/18 09:35:30;;;;;;;7.67;5.70;;;18.70;99.90;;;;;;5027350;28;20438;-64
2021/08/18 09:37:59;;;;;;;9.00;5.83;;;18.90;99.90;;;;;;5042672;28;20457;-63
2021/08/18 09:40:39;;;;;;;9.57;5.47;;;19.10;99.90;;;;;;5027521;28;20469;-63
2021/08/18 09:43:08;;;;;;;8.50;5.37;;;19.10;99.90;;;;;;5037793;28;20857;-64
2021/08/18 09:45:35;;;;;;;8.10;5.00;;;19.20;99.90;;;;;;5045320;28;20438;-64
2021/08/18 09:48:05;;;;;;;5.97;5.20;;;19.20;99.90;;;;;;5043446;28;20422;-63
2021/08/18 09:50:48;;;;;;;7.87;4.80;;;19.30;99.90;;;;;;5042336;28;20788;-64
2021/08/18 09:53:18;;;;;;;7.30;5.60;;;19.20;99.90;;;;;;5029374;28;20974;-64
2021/08/18 09:56:07;;;;;;;8.60;5.53;;;19.20;99.90;;;;;;5040339;28;20429;-65
2021/08/18 09:58:37;;;;;;;7.77;5.60;;;19.00;99.90;;;;;;5044531;28;20459;-64
2021/08/18 10:01:10;;;;;;;9.43;5.93;;;18.90;99.90;;;;;;5028877;28;20446;-64
2021/08/18 10:03:42;;;;;;;8.90;5.50;;;18.70;99.90;;;;;;5048204;28;20434;-64
2021/08/18 10:06:10;;;;;;;8.07;5.50;;;18.80;99.90;;;;;;5031711;28;20466;-64
2021/08/18 10:08:40;;;;;;;8.27;5.90;;;18.70;99.90;;;;;;5026527;28;20503;-65
2021/08/18 10:11:09;;;;;;;8.30;5.73;;;18.70;99.90;;;;;;5023428;28;20967;-64
2021/08/18 10:13:34;;;;;;;7.73;6.63;;;18.80;99.90;;;;;;5021072;28;20427;-64
2021/08/18 10:16:02;;;;;;;7.80;5.30;;;18.90;99.90;;;;;;5038148;28;20434;-64
2021/08/18 10:18:36;;;;;;;7.40;5.57;;;19.00;99.90;;;;;;5043431;28;20212;-64
2021/08/18 10:21:22;;;;;;;9.63;5.37;;;19.10;99.90;;;;;;5045121;28;20452;-64
2021/08/18 10:24:00;;;;;;;7.07;5.40;;;19.20;99.90;;;;;;5023621;28;20542;-64
2021/08/18 10:26:53;;;;;;;8.17;6.40;;;19.30;99.90;;;;;;5025892;28;20596;-64
2021/08/18 10:29:30;;;;;;;7.97;5.83;;;19.30;99.90;;;;;;5043519;28;20540;-61
2021/08/18 10:32:03;;;;;;;7.13;5.03;;;19.20;99.90;;;;;;5042485;28;21242;-62
2021/08/18 10:34:37;;;;;;;7.63;5.33;;;19.30;99.90;;;;;;5027636;28;20497;-63
2021/08/18 10:37:06;;;;;;;8.10;5.23;;;19.40;99.90;;;;;;5043362;28;20792;-62
2021/08/18 10:39:51;;;;;;;7.03;5.47;;;19.50;99.90;;;;;;5024144;28;20481;-63
2021/08/18 10:42:37;;;;;;;6.43;4.87;;;19.60;99.90;;;;;;5042760;28;20445;-65
2021/08/18 10:45:22;;;;;;;8.10;4.73;;;19.80;99.90;;;;;;5039597;28;20433;-65
2021/08/18 10:47:48;;;;;;;6.90;4.83;;;20.00;99.90;;;;;;5039412;28;20426;-65
2021/08/18 10:50:23;;;;;;;7.00;4.70;;;20.00;99.90;;;;;;5039276;28;20734;-65
2021/08/18 10:52:51;;;;;;;7.83;4.67;;;19.90;99.90;;;;;;5020609;28;20438;-65
2021/08/18 10:55:18;;;;;;;5.77;4.27;;;19.80;99.90;;;;;;5043645;28;20426;-64
2021/08/18 10:57:50;;;;;;;8.70;5.80;;;19.70;99.90;;;;;;5043573;28;20527;-64
2021/08/18 11:00:41;;;;;;;4.67;3.90;;;19.70;99.90;;;;;;5026977;28;20458;-64
2021/08/18 11:03:13;;;;;;;5.90;4.30;;;19.50;99.90;;;;;;5037937;28;20501;-64
2021/08/18 11:05:38;;;;;;;5.60;4.00;;;19.50;99.90;;;;;;5042754;28;20564;-64
2021/08/18 11:08:40;;;;;;;4.43;3.77;;;19.30;99.90;;;;;;5040176;28;20554;-64
2021/08/18 11:11:07;;;;;;;7.43;4.20;;;19.50;99.90;;;;;;5038900;28;20195;-65
2021/08/18 11:14:09;;;;;;;4.03;3.17;;;19.40;99.90;;;;;;5041349;28;20477;-64
2021/08/18 11:16:47;;;;;;;3.60;3.30;;;19.40;99.90;;;;;;5021860;28;20455;-65
2021/08/18 11:19:12;;;;;;;3.40;3.10;;;19.30;99.90;;;;;;5037180;28;20540;-65
2021/08/18 11:21:44;;;;;;;3.67;2.83;;;19.40;99.90;;;;;;5035970;28;20557;-65
2021/08/18 11:24:19;;;;;;;3.97;2.80;;;19.70;99.90;;;;;;5038229;28;20620;-64
2021/08/18 11:26:46;;;;;;;5.77;3.20;;;19.80;99.90;;;;;;5020337;28;20465;-65
2021/08/18 11:29:18;;;;;;;2.70;2.37;;;19.90;99.90;;;;;;5039363;28;21133;-65
2021/08/18 11:31:49;;;;;;;3.27;2.57;;;19.80;99.90;;;;;;5038738;28;20475;-65
2021/08/18 11:34:19;;;;;;;3.00;2.47;;;19.70;99.90;;;;;;5039979;28;21016;-62
2021/08/18 11:36:48;;;;;;;2.40;2.20;;;19.70;99.90;;;;;;5036644;28;20991;-61
2021/08/18 11:39:15;;;;;;;2.50;2.30;;;19.60;99.90;;;;;;5036139;28;20462;-61
2021/08/18 11:41:51;;;;;;;2.47;2.27;;;19.70;99.90;;;;;;5026286;28;20472;-65
2021/08/18 11:44:28;;;;;;;3.73;2.40;;;19.70;99.90;;;;;;4971679;28;20815;-65
2021/08/18 11:47:13;;;;;;;4.47;2.90;;;20.00;99.90;;;;;;5043076;28;20457;-64
2021/08/18 11:49:40;;;;;;;4.60;3.07;;;20.20;99.90;;;;;;5039816;28;20872;-62
2021/08/18 11:52:07;;;;;;;3.80;2.80;;;20.10;99.90;;;;;;5038538;28;20495;-63
2021/08/18 11:54:34;;;;;;;3.30;3.00;;;20.00;99.90;;;;;;5022654;28;20792;-62
2021/08/18 11:57:08;;;;;;;2.80;2.37;;;20.10;99.90;;;;;;5041271;28;20847;-61
2021/08/18 11:59:36;;;;;;;2.40;2.20;;;20.20;99.90;;;;;;5009888;28;20451;-62
2021/08/18 12:02:03;;;;;;;2.80;2.50;;;20.30;99.90;;;;;;5024245;28;20918;-65
2021/08/18 12:04:29;;;;;;;4.23;2.70;;;20.60;99.90;;;;;;5021544;28;20529;-64
2021/08/18 12:07:13;;;;;;;2.77;2.50;;;20.80;99.90;;;;;;5040454;28;20454;-63
2021/08/18 12:09:42;;;;;;;2.70;2.13;;;20.80;99.90;;;;;;5039945;28;20531;-63
2021/08/18 12:12:19;;;;;;;2.50;2.30;;;20.70;99.90;;;;;;5044722;28;20491;-62
2021/08/18 12:14:45;;;;;;;2.50;2.30;;;20.60;99.90;;;;;;5045417;28;20435;-62
2021/08/18 12:17:11;;;;;;;3.23;2.40;;;20.40;99.90;;;;;;5024555;28;20936;-64
2021/08/18 12:19:41;;;;;;;2.57;2.37;;;20.30;99.90;;;;;;5023312;28;20236;-64
2021/08/18 12:22:27;;;;;;;2.50;2.30;;;20.30;99.90;;;;;;5036015;28;20453;-65
2021/08/18 12:25:07;;;;;;;2.50;2.30;;;20.20;99.90;;;;;;5023243;28;20975;-63
2021/08/18 12:27:33;;;;;;;3.43;2.80;;;20.00;99.90;;;;;;5042733;28;20488;-64
2021/08/18 12:30:05;;;;;;;2.70;2.27;;;19.90;99.90;;;;;;5039333;28;20469;-65
2021/08/18 12:32:32;;;;;;;6.33;2.60;;;19.60;99.90;;;;;;5039303;28;20784;-65
2021/08/18 12:35:08;;;;;;;5.50;3.00;;;19.50;99.90;;;;;;5038134;28;20435;-65
2021/08/18 12:37:39;;;;;;;3.90;2.60;;;19.60;99.90;;;;;;5036528;28;20870;-65
2021/08/18 12:40:27;;;;;;;2.33;2.13;;;19.40;99.90;;;;;;5037600;28;20771;-65
2021/08/18 12:42:55;;;;;;;3.10;2.80;;;19.50;99.90;;;;;;5021339;28;20430;-65
2021/08/18 12:45:34;;;;;;;3.10;2.37;;;19.60;99.90;;;;;;5019431;28;20449;-65
2021/08/18 12:48:03;;;;;;;3.43;2.60;;;19.50;99.90;;;;;;5038508;28;20442;-65